Terminal Aerodrome Forecast
Issued by NWS Spokane, WA

Home | Current Version | Previous Version | Text Only | Print | Product List | Glossary On
Versions: 1 2 3 4 5 6 7 8 9 10 11 12 13 14 15 16 17 18 19 20 21 22 23 24 25 26 27 28 29 30 31
000
FTUS46 KOTX 180813 AAA
TAFEAT
TAF AMD
KEAT 180813Z 1808/1906 09006KT 6SM BR OVC003
     FM181300 VRB04KT P6SM SCT020 BKN100
     FM181600 31005KT P6SM SCT120 BKN180
     FM190000 31005KT P6SM BKN070 OVC100
     FM190400 31004KT P6SM -RA OVC050=

USA.gov is the U.S. government's official web portal to all federal, state and local government web resources and services.